sensor_id;sensor_type;location;lat;lon;timestamp;temperature;humidity
16417;DHT22;8317;52.186;5.688;2023-08-06T00:01:00;15.30;99.90
16417;DHT22;8317;52.186;5.688;2023-08-06T00:03:27;15.20;99.90
16417;DHT22;8317;52.186;5.688;2023-08-06T00:05:53;15.20;99.90
16417;DHT22;8317;52.186;5.688;2023-08-06T00:08:20;15.20;99.90
16417;DHT22;8317;52.186;5.688;2023-08-06T00:10:47;15.30;99.90
16417;DHT22;8317;52.186;5.688;2023-08-06T00:13:15;15.20;99.90
16417;DHT22;8317;52.186;5.688;2023-08-06T00:15:43;15.20;99.90
16417;DHT22;8317;52.186;5.688;2023-08-06T00:18:10;15.30;99.90
16417;DHT22;8317;52.186;5.688;2023-08-06T00:20:39;15.20;99.90
16417;DHT22;8317;52.186;5.688;2023-08-06T00:23:06;15.20;99.90
16417;DHT22;8317;52.186;5.688;2023-08-06T00:25:33;15.20;99.90
16417;DHT22;8317;52.186;5.688;2023-08-06T00:27:59;15.20;99.90
16417;DHT22;8317;52.186;5.688;2023-08-06T00:30:26;15.20;99.90
16417;DHT22;8317;52.186;5.688;2023-08-06T00:32:55;15.20;99.90
16417;DHT22;8317;52.186;5.688;2023-08-06T00:35:21;15.10;99.90
16417;DHT22;8317;52.186;5.688;2023-08-06T00:37:48;15.00;99.90
16417;DHT22;8317;52.186;5.688;2023-08-06T00:40:15;15.10;99.90
16417;DHT22;8317;52.186;5.688;2023-08-06T00:42:42;15.10;99.90
16417;DHT22;8317;52.186;5.688;2023-08-06T00:45:10;15.10;99.90
16417;DHT22;8317;52.186;5.688;2023-08-06T00:47:37;15.00;99.90
16417;DHT22;8317;52.186;5.688;2023-08-06T00:50:07;15.10;99.90
16417;DHT22;8317;52.186;5.688;2023-08-06T00:52:35;15.00;99.90
16417;DHT22;8317;52.186;5.688;2023-08-06T00:55:03;15.00;99.90
16417;DHT22;8317;52.186;5.688;2023-08-06T00:57:30;15.00;99.90
16417;DHT22;8317;52.186;5.688;2023-08-06T00:59:58;15.00;99.90
16417;DHT22;8317;52.186;5.688;2023-08-06T01:02:25;15.00;99.90
16417;DHT22;8317;52.186;5.688;2023-08-06T01:04:51;15.00;99.90
16417;DHT22;8317;52.186;5.688;2023-08-06T01:07:29;15.00;99.90
16417;DHT22;8317;52.186;5.688;2023-08-06T01:10:23;15.00;99.90
16417;DHT22;8317;52.186;5.688;2023-08-06T01:13:08;15.10;99.90
16417;DHT22;8317;52.186;5.688;2023-08-06T01:15:41;15.10;99.90
16417;DHT22;8317;52.186;5.688;2023-08-06T01:18:08;15.10;99.90
16417;DHT22;8317;52.186;5.688;2023-08-06T01:20:36;15.10;99.90
16417;DHT22;8317;52.186;5.688;2023-08-06T01:23:03;15.10;99.90
16417;DHT22;8317;52.186;5.688;2023-08-06T01:25:33;15.00;99.90
16417;DHT22;8317;52.186;5.688;2023-08-06T01:28:07;15.00;99.90
16417;DHT22;8317;52.186;5.688;2023-08-06T01:30:39;15.00;99.90
16417;DHT22;8317;52.186;5.688;2023-08-06T01:33:12;14.90;99.90
16417;DHT22;8317;52.186;5.688;2023-08-06T01:35:41;14.90;99.90
16417;DHT22;8317;52.186;5.688;2023-08-06T01:38:09;15.00;99.90
16417;DHT22;8317;52.186;5.688;2023-08-06T01:40:36;14.90;99.90
16417;DHT22;8317;52.186;5.688;2023-08-06T01:43:02;15.00;99.90
16417;DHT22;8317;52.186;5.688;2023-08-06T01:45:29;14.90;99.90
16417;DHT22;8317;52.186;5.688;2023-08-06T01:47:56;15.00;99.90
16417;DHT22;8317;52.186;5.688;2023-08-06T01:50:23;15.00;99.90
16417;DHT22;8317;52.186;5.688;2023-08-06T01:52:51;15.00;99.90
16417;DHT22;8317;52.186;5.688;2023-08-06T01:55:18;14.90;99.90
16417;DHT22;8317;52.186;5.688;2023-08-06T01:57:46;15.00;99.90
16417;DHT22;8317;52.186;5.688;2023-08-06T02:00:13;15.00;99.90
16417;DHT22;8317;52.186;5.688;2023-08-06T02:02:40;15.00;99.90
16417;DHT22;8317;52.186;5.688;2023-08-06T02:05:07;15.00;99.90
16417;DHT22;8317;52.186;5.688;2023-08-06T02:07:34;15.00;99.90
16417;DHT22;8317;52.186;5.688;2023-08-06T02:10:02;15.00;99.90
16417;DHT22;8317;52.186;5.688;2023-08-06T02:12:29;15.00;99.90
16417;DHT22;8317;52.186;5.688;2023-08-06T02:14:56;15.10;99.90
16417;DHT22;8317;52.186;5.688;2023-08-06T02:17:23;15.10;99.90
16417;DHT22;8317;52.186;5.688;2023-08-06T02:19:50;15.10;99.90
16417;DHT22;8317;52.186;5.688;2023-08-06T02:22:16;15.10;99.90
16417;DHT22;8317;52.186;5.688;2023-08-06T02:24:43;15.10;99.90
16417;DHT22;8317;52.186;5.688;2023-08-06T02:27:12;15.00;99.90
16417;DHT22;8317;52.186;5.688;2023-08-06T02:29:40;15.10;99.90
16417;DHT22;8317;52.186;5.688;2023-08-06T02:32:07;15.10;99.90
16417;DHT22;8317;52.186;5.688;2023-08-06T02:34:34;15.10;99.90
16417;DHT22;8317;52.186;5.688;2023-08-06T02:37:01;15.10;99.90
16417;DHT22;8317;52.186;5.688;2023-08-06T02:39:28;15.00;99.90
16417;DHT22;8317;52.186;5.688;2023-08-06T02:41:55;15.00;99.90
16417;DHT22;8317;52.186;5.688;2023-08-06T02:44:23;15.10;99.90
16417;DHT22;8317;52.186;5.688;2023-08-06T02:46:50;15.10;99.90
16417;DHT22;8317;52.186;5.688;2023-08-06T02:49:17;15.10;99.90
16417;DHT22;8317;52.186;5.688;2023-08-06T02:51:45;15.00;99.90
16417;DHT22;8317;52.186;5.688;2023-08-06T02:54:12;15.10;99.90
16417;DHT22;8317;52.186;5.688;2023-08-06T02:56:39;15.10;99.90
16417;DHT22;8317;52.186;5.688;2023-08-06T02:59:09;15.10;99.90
16417;DHT22;8317;52.186;5.688;2023-08-06T03:01:37;15.10;99.90
16417;DHT22;8317;52.186;5.688;2023-08-06T03:04:04;15.10;99.90
16417;DHT22;8317;52.186;5.688;2023-08-06T03:06:31;15.10;99.90
16417;DHT22;8317;52.186;5.688;2023-08-06T03:08:58;15.10;99.90
16417;DHT22;8317;52.186;5.688;2023-08-06T03:11:24;15.20;99.90
16417;DHT22;8317;52.186;5.688;2023-08-06T03:13:51;15.20;99.90
16417;DHT22;8317;52.186;5.688;2023-08-06T03:16:18;15.20;99.90
16417;DHT22;8317;52.186;5.688;2023-08-06T03:18:46;15.20;99.90
16417;DHT22;8317;52.186;5.688;2023-08-06T03:21:13;15.10;99.90
16417;DHT22;8317;52.186;5.688;2023-08-06T03:23:40;15.10;99.90
16417;DHT22;8317;52.186;5.688;2023-08-06T03:26:08;15.20;99.90
16417;DHT22;8317;52.186;5.688;2023-08-06T03:28:34;15.20;99.90
16417;DHT22;8317;52.186;5.688;2023-08-06T03:31:02;15.10;99.90
16417;DHT22;8317;52.186;5.688;2023-08-06T03:33:30;15.10;99.90
16417;DHT22;8317;52.186;5.688;2023-08-06T03:35:58;15.20;99.90
16417;DHT22;8317;52.186;5.688;2023-08-06T03:38:25;15.20;99.90
16417;DHT22;8317;52.186;5.688;2023-08-06T03:40:52;15.10;99.90
16417;DHT22;8317;52.186;5.688;2023-08-06T03:43:19;15.10;99.90
16417;DHT22;8317;52.186;5.688;2023-08-06T03:45:45;15.20;99.90
16417;DHT22;8317;52.186;5.688;2023-08-06T03:48:12;15.10;99.90
16417;DHT22;8317;52.186;5.688;2023-08-06T03:50:39;15.20;99.90
16417;DHT22;8317;52.186;5.688;2023-08-06T03:53:08;15.20;99.90
16417;DHT22;8317;52.186;5.688;2023-08-06T03:55:34;15.10;99.90
16417;DHT22;8317;52.186;5.688;2023-08-06T03:58:01;15.20;99.90
16417;DHT22;8317;52.186;5.688;2023-08-06T04:00:28;15.20;99.90
16417;DHT22;8317;52.186;5.688;2023-08-06T04:02:55;15.20;99.90
16417;DHT22;8317;52.186;5.688;2023-08-06T04:05:22;15.20;99.90
16417;DHT22;8317;52.186;5.688;2023-08-06T04:07:49;15.10;99.90
16417;DHT22;8317;52.186;5.688;2023-08-06T04:10:17;15.10;99.90
16417;DHT22;8317;52.186;5.688;2023-08-06T04:12:44;15.20;99.90
16417;DHT22;8317;52.186;5.688;2023-08-06T04:15:11;15.20;99.90
16417;DHT22;8317;52.186;5.688;2023-08-06T04:17:38;15.10;99.90
16417;DHT22;8317;52.186;5.688;2023-08-06T04:20:06;15.20;99.90
16417;DHT22;8317;52.186;5.688;2023-08-06T04:22:33;15.20;99.90
16417;DHT22;8317;52.186;5.688;2023-08-06T04:25:00;15.20;99.90
16417;DHT22;8317;52.186;5.688;2023-08-06T04:27:28;15.20;99.90
16417;DHT22;8317;52.186;5.688;2023-08-06T04:29:55;15.20;99.90
16417;DHT22;8317;52.186;5.688;2023-08-06T04:32:22;15.20;99.90
16417;DHT22;8317;52.186;5.688;2023-08-06T04:34:50;15.20;99.90
16417;DHT22;8317;52.186;5.688;2023-08-06T04:37:17;15.20;99.90
16417;DHT22;8317;52.186;5.688;2023-08-06T04:39:44;15.30;99.90
16417;DHT22;8317;52.186;5.688;2023-08-06T04:42:10;15.30;99.90
16417;DHT22;8317;52.186;5.688;2023-08-06T04:44:39;15.30;99.90
16417;DHT22;8317;52.186;5.688;2023-08-06T04:47:06;15.30;99.90
16417;DHT22;8317;52.186;5.688;2023-08-06T04:49:32;15.30;99.90
16417;DHT22;8317;52.186;5.688;2023-08-06T04:52:00;15.20;99.90
16417;DHT22;8317;52.186;5.688;2023-08-06T04:54:27;15.30;99.90
16417;DHT22;8317;52.186;5.688;2023-08-06T04:56:54;15.30;99.90
16417;DHT22;8317;52.186;5.688;2023-08-06T04:59:20;15.40;99.90
16417;DHT22;8317;52.186;5.688;2023-08-06T05:01:49;15.30;99.90
16417;DHT22;8317;52.186;5.688;2023-08-06T05:04:16;15.30;99.90
16417;DHT22;8317;52.186;5.688;2023-08-06T05:06:42;15.40;99.90
16417;DHT22;8317;52.186;5.688;2023-08-06T05:09:09;15.40;99.90
16417;DHT22;8317;52.186;5.688;2023-08-06T05:11:36;15.40;99.90
16417;DHT22;8317;52.186;5.688;2023-08-06T05:14:03;15.50;99.90
16417;DHT22;8317;52.186;5.688;2023-08-06T05:16:30;15.40;99.90
16417;DHT22;8317;52.186;5.688;2023-08-06T05:18:58;15.50;99.90
16417;DHT22;8317;52.186;5.688;2023-08-06T05:21:25;15.40;99.90
16417;DHT22;8317;52.186;5.688;2023-08-06T05:23:52;15.50;99.90
16417;DHT22;8317;52.186;5.688;2023-08-06T05:26:19;15.50;99.90
16417;DHT22;8317;52.186;5.688;2023-08-06T05:28:46;15.50;99.90
16417;DHT22;8317;52.186;5.688;2023-08-06T05:31:13;15.50;99.90
16417;DHT22;8317;52.186;5.688;2023-08-06T05:33:39;15.50;99.90
16417;DHT22;8317;52.186;5.688;2023-08-06T05:36:08;15.50;99.90
16417;DHT22;8317;52.186;5.688;2023-08-06T05:38:35;15.50;99.90
16417;DHT22;8317;52.186;5.688;2023-08-06T05:41:01;15.60;99.90
16417;DHT22;8317;52.186;5.688;2023-08-06T05:43:29;15.50;99.90
16417;DHT22;8317;52.186;5.688;2023-08-06T05:45:56;15.50;99.90
16417;DHT22;8317;52.186;5.688;2023-08-06T05:48:23;15.60;99.90
16417;DHT22;8317;52.186;5.688;2023-08-06T05:50:51;15.50;99.90
16417;DHT22;8317;52.186;5.688;2023-08-06T05:53:19;15.50;99.90
16417;DHT22;8317;52.186;5.688;2023-08-06T05:55:47;15.50;99.90
16417;DHT22;8317;52.186;5.688;2023-08-06T05:58:14;15.50;99.90
16417;DHT22;8317;52.186;5.688;2023-08-06T06:00:41;15.50;99.90
16417;DHT22;8317;52.186;5.688;2023-08-06T06:03:08;15.60;99.90
16417;DHT22;8317;52.186;5.688;2023-08-06T06:05:37;15.60;99.90
16417;DHT22;8317;52.186;5.688;2023-08-06T06:08:04;15.60;99.90
16417;DHT22;8317;52.186;5.688;2023-08-06T06:10:32;15.70;99.90
16417;DHT22;8317;52.186;5.688;2023-08-06T06:12:59;15.60;99.90
16417;DHT22;8317;52.186;5.688;2023-08-06T06:15:26;15.70;99.90
16417;DHT22;8317;52.186;5.688;2023-08-06T06:17:53;15.60;99.90
16417;DHT22;8317;52.186;5.688;2023-08-06T06:20:20;15.60;99.90
16417;DHT22;8317;52.186;5.688;2023-08-06T06:22:47;15.80;99.90
16417;DHT22;8317;52.186;5.688;2023-08-06T06:25:14;15.70;99.90
16417;DHT22;8317;52.186;5.688;2023-08-06T06:27:42;15.80;99.90
16417;DHT22;8317;52.186;5.688;2023-08-06T06:30:09;15.80;99.90
16417;DHT22;8317;52.186;5.688;2023-08-06T06:32:37;15.90;99.90
16417;DHT22;8317;52.186;5.688;2023-08-06T06:35:06;15.80;99.90
16417;DHT22;8317;52.186;5.688;2023-08-06T06:37:32;15.90;99.90
16417;DHT22;8317;52.186;5.688;2023-08-06T06:39:59;16.00;99.90
16417;DHT22;8317;52.186;5.688;2023-08-06T06:42:26;16.00;99.90
16417;DHT22;8317;52.186;5.688;2023-08-06T06:44:54;16.00;99.90
16417;DHT22;8317;52.186;5.688;2023-08-06T06:47:21;16.00;99.90
16417;DHT22;8317;52.186;5.688;2023-08-06T06:49:48;16.10;99.90
16417;DHT22;8317;52.186;5.688;2023-08-06T06:52:15;16.10;99.90
16417;DHT22;8317;52.186;5.688;2023-08-06T06:54:42;16.10;99.90
16417;DHT22;8317;52.186;5.688;2023-08-06T06:57:09;16.20;99.90
16417;DHT22;8317;52.186;5.688;2023-08-06T06:59:36;16.20;99.90
16417;DHT22;8317;52.186;5.688;2023-08-06T07:02:05;16.30;99.90
16417;DHT22;8317;52.186;5.688;2023-08-06T07:04:32;16.30;99.90
16417;DHT22;8317;52.186;5.688;2023-08-06T07:06:59;16.20;99.90
16417;DHT22;8317;52.186;5.688;2023-08-06T07:09:26;16.30;99.90
16417;DHT22;8317;52.186;5.688;2023-08-06T07:11:53;16.30;99.90
16417;DHT22;8317;52.186;5.688;2023-08-06T07:14:20;16.40;99.90
16417;DHT22;8317;52.186;5.688;2023-08-06T07:16:46;16.40;99.90
16417;DHT22;8317;52.186;5.688;2023-08-06T07:19:15;16.40;99.90
16417;DHT22;8317;52.186;5.688;2023-08-06T07:21:42;16.50;99.90
16417;DHT22;8317;52.186;5.688;2023-08-06T07:24:08;16.40;99.90
16417;DHT22;8317;52.186;5.688;2023-08-06T07:26:35;16.40;99.90
16417;DHT22;8317;52.186;5.688;2023-08-06T07:29:02;16.40;99.90
16417;DHT22;8317;52.186;5.688;2023-08-06T07:31:29;16.40;99.90
16417;DHT22;8317;52.186;5.688;2023-08-06T07:33:56;16.50;99.90
16417;DHT22;8317;52.186;5.688;2023-08-06T07:36:24;16.70;99.90
16417;DHT22;8317;52.186;5.688;2023-08-06T07:38:51;16.90;99.90
16417;DHT22;8317;52.186;5.688;2023-08-06T07:41:21;16.80;99.90
16417;DHT22;8317;52.186;5.688;2023-08-06T07:43:48;16.90;99.90
16417;DHT22;8317;52.186;5.688;2023-08-06T07:46:15;16.90;99.90
16417;DHT22;8317;52.186;5.688;2023-08-06T07:48:42;17.00;99.90
16417;DHT22;8317;52.186;5.688;2023-08-06T07:51:12;17.20;99.90
16417;DHT22;8317;52.186;5.688;2023-08-06T07:53:40;17.30;99.90
16417;DHT22;8317;52.186;5.688;2023-08-06T07:56:07;17.30;99.90
16417;DHT22;8317;52.186;5.688;2023-08-06T07:58:34;17.30;99.90
16417;DHT22;8317;52.186;5.688;2023-08-06T08:01:01;17.50;99.90
16417;DHT22;8317;52.186;5.688;2023-08-06T08:03:29;17.50;99.90
16417;DHT22;8317;52.186;5.688;2023-08-06T08:05:55;17.50;99.90
16417;DHT22;8317;52.186;5.688;2023-08-06T08:08:25;17.40;99.90
16417;DHT22;8317;52.186;5.688;2023-08-06T08:10:54;17.40;99.90
16417;DHT22;8317;52.186;5.688;2023-08-06T08:13:21;17.30;99.90
16417;DHT22;8317;52.186;5.688;2023-08-06T08:15:48;17.40;99.90
16417;DHT22;8317;52.186;5.688;2023-08-06T08:18:15;17.40;99.90
16417;DHT22;8317;52.186;5.688;2023-08-06T08:20:42;17.30;99.90
16417;DHT22;8317;52.186;5.688;2023-08-06T08:23:09;17.30;99.90
16417;DHT22;8317;52.186;5.688;2023-08-06T08:25:35;17.30;99.90
16417;DHT22;8317;52.186;5.688;2023-08-06T08:28:04;17.30;99.90
16417;DHT22;8317;52.186;5.688;2023-08-06T08:30:31;17.20;99.90
16417;DHT22;8317;52.186;5.688;2023-08-06T08:32:58;17.10;99.90
16417;DHT22;8317;52.186;5.688;2023-08-06T08:35:25;17.00;99.90
16417;DHT22;8317;52.186;5.688;2023-08-06T08:37:52;17.10;99.90
16417;DHT22;8317;52.186;5.688;2023-08-06T08:40:21;17.20;99.90
16417;DHT22;8317;52.186;5.688;2023-08-06T08:42:49;17.20;99.90
16417;DHT22;8317;52.186;5.688;2023-08-06T08:45:20;17.30;99.90
16417;DHT22;8317;52.186;5.688;2023-08-06T08:47:49;17.30;99.90
16417;DHT22;8317;52.186;5.688;2023-08-06T08:50:17;17.40;99.90
16417;DHT22;8317;52.186;5.688;2023-08-06T08:52:45;17.30;99.90
16417;DHT22;8317;52.186;5.688;2023-08-06T08:55:15;17.30;99.90
16417;DHT22;8317;52.186;5.688;2023-08-06T08:57:43;17.30;99.90
16417;DHT22;8317;52.186;5.688;2023-08-06T09:00:10;17.40;99.90
16417;DHT22;8317;52.186;5.688;2023-08-06T09:02:39;17.40;99.90
16417;DHT22;8317;52.186;5.688;2023-08-06T09:05:07;17.40;99.90
16417;DHT22;8317;52.186;5.688;2023-08-06T09:07:38;17.40;99.90
16417;DHT22;8317;52.186;5.688;2023-08-06T09:10:07;17.50;99.90
16417;DHT22;8317;52.186;5.688;2023-08-06T09:12:37;17.50;99.90
16417;DHT22;8317;52.186;5.688;2023-08-06T09:15:05;17.60;99.90
16417;DHT22;8317;52.186;5.688;2023-08-06T09:17:32;17.50;99.90
16417;DHT22;8317;52.186;5.688;2023-08-06T09:20:09;17.50;99.90
16417;DHT22;8317;52.186;5.688;2023-08-06T09:22:36;17.50;99.90
16417;DHT22;8317;52.186;5.688;2023-08-06T09:25:04;17.50;99.90
16417;DHT22;8317;52.186;5.688;2023-08-06T09:27:35;17.50;99.90
16417;DHT22;8317;52.186;5.688;2023-08-06T09:30:03;17.50;99.90
16417;DHT22;8317;52.186;5.688;2023-08-06T09:32:45;17.60;99.90
16417;DHT22;8317;52.186;5.688;2023-08-06T09:35:16;17.60;99.90
16417;DHT22;8317;52.186;5.688;2023-08-06T09:37:44;17.60;99.90
16417;DHT22;8317;52.186;5.688;2023-08-06T09:40:25;17.80;99.90
16417;DHT22;8317;52.186;5.688;2023-08-06T09:42:52;18.00;99.90
16417;DHT22;8317;52.186;5.688;2023-08-06T09:45:19;18.10;99.90
16417;DHT22;8317;52.186;5.688;2023-08-06T09:47:47;18.20;99.90
16417;DHT22;8317;52.186;5.688;2023-08-06T09:50:19;18.20;99.90
16417;DHT22;8317;52.186;5.688;2023-08-06T09:52:47;18.40;99.90
16417;DHT22;8317;52.186;5.688;2023-08-06T09:55:15;18.20;99.90
16417;DHT22;8317;52.186;5.688;2023-08-06T09:57:42;18.30;99.90
16417;DHT22;8317;52.186;5.688;2023-08-06T10:00:10;18.20;99.90
16417;DHT22;8317;52.186;5.688;2023-08-06T10:02:39;18.20;99.90
16417;DHT22;8317;52.186;5.688;2023-08-06T10:05:07;18.20;99.90
16417;DHT22;8317;52.186;5.688;2023-08-06T10:07:36;18.10;99.90
16417;DHT22;8317;52.186;5.688;2023-08-06T10:10:05;18.10;99.90
16417;DHT22;8317;52.186;5.688;2023-08-06T10:12:34;18.10;99.90
16417;DHT22;8317;52.186;5.688;2023-08-06T10:15:05;17.80;99.90
16417;DHT22;8317;52.186;5.688;2023-08-06T10:17:34;17.70;99.90
16417;DHT22;8317;52.186;5.688;2023-08-06T10:20:04;17.60;99.90
16417;DHT22;8317;52.186;5.688;2023-08-06T10:22:33;17.20;99.90
16417;DHT22;8317;52.186;5.688;2023-08-06T10:25:02;16.90;99.90
16417;DHT22;8317;52.186;5.688;2023-08-06T10:27:32;16.70;99.90
16417;DHT22;8317;52.186;5.688;2023-08-06T10:30:21;16.50;99.90
16417;DHT22;8317;52.186;5.688;2023-08-06T10:32:48;16.20;99.90
16417;DHT22;8317;52.186;5.688;2023-08-06T10:35:29;16.10;99.90
16417;DHT22;8317;52.186;5.688;2023-08-06T10:38:03;16.00;99.90
16417;DHT22;8317;52.186;5.688;2023-08-06T10:40:32;15.90;99.90
16417;DHT22;8317;52.186;5.688;2023-08-06T10:42:59;15.70;99.90
16417;DHT22;8317;52.186;5.688;2023-08-06T10:45:26;15.60;99.90
16417;DHT22;8317;52.186;5.688;2023-08-06T10:47:55;15.50;99.90
16417;DHT22;8317;52.186;5.688;2023-08-06T10:50:23;15.40;99.90
16417;DHT22;8317;52.186;5.688;2023-08-06T10:52:50;15.50;99.90
16417;DHT22;8317;52.186;5.688;2023-08-06T10:55:25;15.40;99.90
16417;DHT22;8317;52.186;5.688;2023-08-06T10:57:54;15.40;99.90
16417;DHT22;8317;52.186;5.688;2023-08-06T11:00:22;15.30;99.90
16417;DHT22;8317;52.186;5.688;2023-08-06T11:02:50;15.30;99.90
16417;DHT22;8317;52.186;5.688;2023-08-06T11:05:17;15.40;99.90
16417;DHT22;8317;52.186;5.688;2023-08-06T11:07:44;15.30;99.90
16417;DHT22;8317;52.186;5.688;2023-08-06T11:10:12;15.30;99.90
16417;DHT22;8317;52.186;5.688;2023-08-06T11:12:40;15.10;99.90
16417;DHT22;8317;52.186;5.688;2023-08-06T11:15:09;15.10;99.90
16417;DHT22;8317;52.186;5.688;2023-08-06T11:17:37;15.00;99.90
16417;DHT22;8317;52.186;5.688;2023-08-06T11:20:06;14.90;99.90
16417;DHT22;8317;52.186;5.688;2023-08-06T11:22:33;14.90;99.90
16417;DHT22;8317;52.186;5.688;2023-08-06T11:25:02;14.80;99.90
16417;DHT22;8317;52.186;5.688;2023-08-06T11:27:29;14.80;99.90
16417;DHT22;8317;52.186;5.688;2023-08-06T11:29:56;14.80;99.90
16417;DHT22;8317;52.186;5.688;2023-08-06T11:32:24;14.80;99.90
16417;DHT22;8317;52.186;5.688;2023-08-06T11:34:53;14.80;99.90
16417;DHT22;8317;52.186;5.688;2023-08-06T11:37:21;14.80;99.90
16417;DHT22;8317;52.186;5.688;2023-08-06T11:39:50;14.80;99.90
16417;DHT22;8317;52.186;5.688;2023-08-06T11:42:17;14.80;99.90
16417;DHT22;8317;52.186;5.688;2023-08-06T11:44:44;14.80;99.90
16417;DHT22;8317;52.186;5.688;2023-08-06T11:47:16;14.80;99.90
16417;DHT22;8317;52.186;5.688;2023-08-06T11:49:46;14.70;99.90
16417;DHT22;8317;52.186;5.688;2023-08-06T11:52:17;14.80;99.90
16417;DHT22;8317;52.186;5.688;2023-08-06T11:54:46;14.70;99.90
16417;DHT22;8317;52.186;5.688;2023-08-06T11:57:13;14.70;99.90
16417;DHT22;8317;52.186;5.688;2023-08-06T11:59:39;14.80;99.90
16417;DHT22;8317;52.186;5.688;2023-08-06T12:02:08;14.70;99.90
16417;DHT22;8317;52.186;5.688;2023-08-06T12:05:03;14.80;99.90
16417;DHT22;8317;52.186;5.688;2023-08-06T12:07:31;14.90;99.90
16417;DHT22;8317;52.186;5.688;2023-08-06T12:09:59;15.00;99.90
16417;DHT22;8317;52.186;5.688;2023-08-06T12:12:26;15.00;99.90
16417;DHT22;8317;52.186;5.688;2023-08-06T12:14:54;15.10;99.90
16417;DHT22;8317;52.186;5.688;2023-08-06T12:17:21;15.10;99.90
16417;DHT22;8317;52.186;5.688;2023-08-06T12:19:51;15.10;99.90
16417;DHT22;8317;52.186;5.688;2023-08-06T12:22:19;15.10;99.90
16417;DHT22;8317;52.186;5.688;2023-08-06T12:24:47;15.10;99.90
16417;DHT22;8317;52.186;5.688;2023-08-06T12:27:14;15.10;99.90
16417;DHT22;8317;52.186;5.688;2023-08-06T12:29:42;15.20;99.90
16417;DHT22;8317;52.186;5.688;2023-08-06T12:32:09;15.20;99.90
16417;DHT22;8317;52.186;5.688;2023-08-06T12:34:37;15.20;99.90
16417;DHT22;8317;52.186;5.688;2023-08-06T12:37:05;15.30;99.90
16417;DHT22;8317;52.186;5.688;2023-08-06T12:39:34;15.40;99.90
16417;DHT22;8317;52.186;5.688;2023-08-06T12:42:02;15.30;99.90
16417;DHT22;8317;52.186;5.688;2023-08-06T12:44:29;15.40;99.90
16417;DHT22;8317;52.186;5.688;2023-08-06T12:46:57;15.30;99.90
16417;DHT22;8317;52.186;5.688;2023-08-06T12:49:25;15.40;99.90
16417;DHT22;8317;52.186;5.688;2023-08-06T12:51:53;15.40;99.90
16417;DHT22;8317;52.186;5.688;2023-08-06T12:54:20;15.50;99.90
16417;DHT22;8317;52.186;5.688;2023-08-06T12:56:49;15.50;99.90
16417;DHT22;8317;52.186;5.688;2023-08-06T12:59:17;15.50;99.90
16417;DHT22;8317;52.186;5.688;2023-08-06T13:01:44;15.50;99.90
16417;DHT22;8317;52.186;5.688;2023-08-06T13:04:12;15.50;99.90
16417;DHT22;8317;52.186;5.688;2023-08-06T13:06:38;15.50;99.90
16417;DHT22;8317;52.186;5.688;2023-08-06T13:09:06;15.50;99.90
16417;DHT22;8317;52.186;5.688;2023-08-06T13:11:34;15.40;99.90
16417;DHT22;8317;52.186;5.688;2023-08-06T13:14:06;15.50;99.90
16417;DHT22;8317;52.186;5.688;2023-08-06T13:16:34;15.50;99.90
16417;DHT22;8317;52.186;5.688;2023-08-06T13:19:01;15.50;99.90
16417;DHT22;8317;52.186;5.688;2023-08-06T13:21:32;15.60;99.90
16417;DHT22;8317;52.186;5.688;2023-08-06T13:23:59;15.60;99.90
16417;DHT22;8317;52.186;5.688;2023-08-06T13:26:27;15.50;99.90
16417;DHT22;8317;52.186;5.688;2023-08-06T13:28:54;15.60;99.90
16417;DHT22;8317;52.186;5.688;2023-08-06T13:31:23;15.60;99.90
16417;DHT22;8317;52.186;5.688;2023-08-06T13:33:50;15.60;99.90
16417;DHT22;8317;52.186;5.688;2023-08-06T13:36:17;15.60;99.90
16417;DHT22;8317;52.186;5.688;2023-08-06T13:38:44;15.60;99.90
16417;DHT22;8317;52.186;5.688;2023-08-06T13:41:11;15.50;99.90
16417;DHT22;8317;52.186;5.688;2023-08-06T13:43:39;15.50;99.90
16417;DHT22;8317;52.186;5.688;2023-08-06T13:46:06;15.50;99.90
16417;DHT22;8317;52.186;5.688;2023-08-06T13:48:34;15.50;99.90
16417;DHT22;8317;52.186;5.688;2023-08-06T13:51:01;15.50;99.90
16417;DHT22;8317;52.186;5.688;2023-08-06T13:53:28;15.50;99.90
16417;DHT22;8317;52.186;5.688;2023-08-06T13:55:55;15.50;99.90
16417;DHT22;8317;52.186;5.688;2023-08-06T13:58:23;15.50;99.90
16417;DHT22;8317;52.186;5.688;2023-08-06T14:00:52;15.60;99.90
16417;DHT22;8317;52.186;5.688;2023-08-06T14:03:20;15.40;99.90
16417;DHT22;8317;52.186;5.688;2023-08-06T14:05:48;15.50;99.90
16417;DHT22;8317;52.186;5.688;2023-08-06T14:08:15;15.50;99.90
16417;DHT22;8317;52.186;5.688;2023-08-06T14:10:43;15.60;99.90
16417;DHT22;8317;52.186;5.688;2023-08-06T14:13:10;15.60;99.90
16417;DHT22;8317;52.186;5.688;2023-08-06T14:15:38;15.70;99.90
16417;DHT22;8317;52.186;5.688;2023-08-06T14:18:06;15.60;99.90
16417;DHT22;8317;52.186;5.688;2023-08-06T14:20:33;15.60;99.90
16417;DHT22;8317;52.186;5.688;2023-08-06T14:23:02;15.60;99.90
16417;DHT22;8317;52.186;5.688;2023-08-06T14:25:29;15.70;99.90
16417;DHT22;8317;52.186;5.688;2023-08-06T14:27:56;15.70;99.90
16417;DHT22;8317;52.186;5.688;2023-08-06T14:30:23;15.80;99.90
16417;DHT22;8317;52.186;5.688;2023-08-06T14:32:49;15.80;99.90
16417;DHT22;8317;52.186;5.688;2023-08-06T14:35:16;15.80;99.90
16417;DHT22;8317;52.186;5.688;2023-08-06T14:37:43;15.80;99.90
16417;DHT22;8317;52.186;5.688;2023-08-06T14:40:12;15.90;99.90
16417;DHT22;8317;52.186;5.688;2023-08-06T14:42:39;16.00;99.90
16417;DHT22;8317;52.186;5.688;2023-08-06T14:45:07;16.00;99.90
16417;DHT22;8317;52.186;5.688;2023-08-06T14:47:34;16.00;99.90
16417;DHT22;8317;52.186;5.688;2023-08-06T14:50:00;16.10;99.90
16417;DHT22;8317;52.186;5.688;2023-08-06T14:52:27;16.00;99.90
16417;DHT22;8317;52.186;5.688;2023-08-06T14:54:55;16.10;99.90
16417;DHT22;8317;52.186;5.688;2023-08-06T14:57:23;16.10;99.90
16417;DHT22;8317;52.186;5.688;2023-08-06T14:59:53;16.10;99.90
16417;DHT22;8317;52.186;5.688;2023-08-06T15:02:20;16.20;99.90
16417;DHT22;8317;52.186;5.688;2023-08-06T15:04:47;16.30;99.90
16417;DHT22;8317;52.186;5.688;2023-08-06T15:07:14;16.30;99.90
16417;DHT22;8317;52.186;5.688;2023-08-06T15:09:41;16.30;99.90
16417;DHT22;8317;52.186;5.688;2023-08-06T15:12:08;16.30;99.90
16417;DHT22;8317;52.186;5.688;2023-08-06T15:14:36;16.30;99.90
16417;DHT22;8317;52.186;5.688;2023-08-06T15:17:03;16.40;99.90
16417;DHT22;8317;52.186;5.688;2023-08-06T15:19:30;16.40;99.90
16417;DHT22;8317;52.186;5.688;2023-08-06T15:21:57;16.40;99.90
16417;DHT22;8317;52.186;5.688;2023-08-06T15:24:24;16.40;99.90
16417;DHT22;8317;52.186;5.688;2023-08-06T15:26:51;16.40;99.90
16417;DHT22;8317;52.186;5.688;2023-08-06T15:29:18;16.30;99.90
16417;DHT22;8317;52.186;5.688;2023-08-06T15:31:46;16.40;99.90
16417;DHT22;8317;52.186;5.688;2023-08-06T15:34:13;16.30;99.90
16417;DHT22;8317;52.186;5.688;2023-08-06T15:36:40;16.40;99.90
16417;DHT22;8317;52.186;5.688;2023-08-06T15:39:07;16.40;99.90
16417;DHT22;8317;52.186;5.688;2023-08-06T15:41:33;16.30;99.90
16417;DHT22;8317;52.186;5.688;2023-08-06T15:44:00;16.30;99.90
16417;DHT22;8317;52.186;5.688;2023-08-06T15:46:27;16.30;99.90
16417;DHT22;8317;52.186;5.688;2023-08-06T15:48:56;16.20;99.90